Archival Weather

Wadi Al Dawasir

Wadi Al Dawasir, Saudi Arabia (OEWD)

Report from: Sunday, October 1, 2023 12:00 AM +03
Current time: Saturday, February 24, 2024 12:24 AM +03

Current weather – Weather history – Daily summaries
Weather forecast

Temperature30.0°C (86.0°F)
Heat index28.1°C (82.6°F)
Dew point-4.0°C (24.8°F)
Winds 3 kts (1.5 m/s, 3.5 mph) South-Southeast (160°)
Clouds Sky clear
Altimeter29.88 in.Hg (1012 mB)
Relative humidity11 %
Density altitude1,839 ft. (561 m)
Remarks Ceiling and visibility OK
Flight conditions Visual Meteorological Conditions
Raw dataOEWD 302100Z 16003KT CAVOK 30/M04 Q1012
An error has occurred. This application may no longer respond until reloaded. Reload 🗙